sensor_id;sensor_type;location;lat;lon;timestamp;P1;durP1;ratioP1;P2;durP2;ratioP2
15381;SDS011;7789;51.364;12.358;2022-08-01T00:05:08;2.85;;;2.30;;
15381;SDS011;7789;51.364;12.358;2022-08-01T00:10:18;3.05;;;2.28;;
15381;SDS011;7789;51.364;12.358;2022-08-01T00:15:47;3.05;;;2.20;;
15381;SDS011;7789;51.364;12.358;2022-08-01T00:21:00;2.55;;;2.35;;
15381;SDS011;7789;51.364;12.358;2022-08-01T00:26:07;2.88;;;2.47;;
15381;SDS011;7789;51.364;12.358;2022-08-01T00:31:20;3.50;;;2.53;;
15381;SDS011;7789;51.364;12.358;2022-08-01T00:36:28;2.88;;;2.30;;
15381;SDS011;7789;51.364;12.358;2022-08-01T00:41:42;3.55;;;2.50;;
15381;SDS011;7789;51.364;12.358;2022-08-01T00:47:03;2.83;;;2.55;;
15381;SDS011;7789;51.364;12.358;2022-08-01T00:52:15;3.15;;;2.42;;
15381;SDS011;7789;51.364;12.358;2022-08-01T00:57:48;2.80;;;2.60;;
15381;SDS011;7789;51.364;12.358;2022-08-01T01:03:07;2.40;;;2.20;;
15381;SDS011;7789;51.364;12.358;2022-08-01T01:08:39;2.70;;;2.33;;
15381;SDS011;7789;51.364;12.358;2022-08-01T01:13:53;3.45;;;2.42;;
15381;SDS011;7789;51.364;12.358;2022-08-01T01:24:40;3.42;;;2.53;;
15381;SDS011;7789;51.364;12.358;2022-08-01T01:30:30;3.22;;;2.40;;
15381;SDS011;7789;51.364;12.358;2022-08-01T01:35:47;4.10;;;2.88;;
15381;SDS011;7789;51.364;12.358;2022-08-01T01:40:58;2.58;;;2.33;;
15381;SDS011;7789;51.364;12.358;2022-08-01T01:46:18;4.50;;;2.22;;
15381;SDS011;7789;51.364;12.358;2022-08-01T01:51:26;2.65;;;2.45;;
15381;SDS011;7789;51.364;12.358;2022-08-01T01:56:41;4.40;;;2.42;;
15381;SDS011;7789;51.364;12.358;2022-08-01T02:02:12;3.85;;;2.60;;
15381;SDS011;7789;51.364;12.358;2022-08-01T02:07:23;3.67;;;2.50;;
15381;SDS011;7789;51.364;12.358;2022-08-01T02:12:34;3.58;;;2.70;;
15381;SDS011;7789;51.364;12.358;2022-08-01T02:17:48;2.60;;;2.40;;
15381;SDS011;7789;51.364;12.358;2022-08-01T02:23:00;4.50;;;2.90;;
15381;SDS011;7789;51.364;12.358;2022-08-01T02:28:20;3.03;;;2.70;;
15381;SDS011;7789;51.364;12.358;2022-08-01T02:33:33;3.40;;;2.92;;
15381;SDS011;7789;51.364;12.358;2022-08-01T02:38:50;3.60;;;2.72;;
15381;SDS011;7789;51.364;12.358;2022-08-01T02:44:03;2.92;;;2.53;;
15381;SDS011;7789;51.364;12.358;2022-08-01T02:49:28;4.32;;;2.92;;
15381;SDS011;7789;51.364;12.358;2022-08-01T02:54:47;2.92;;;2.63;;
15381;SDS011;7789;51.364;12.358;2022-08-01T03:00:03;6.55;;;2.90;;
15381;SDS011;7789;51.364;12.358;2022-08-01T03:05:27;3.47;;;2.72;;
15381;SDS011;7789;51.364;12.358;2022-08-01T03:10:42;3.17;;;2.60;;
15381;SDS011;7789;51.364;12.358;2022-08-01T03:15:59;3.25;;;2.47;;
15381;SDS011;7789;51.364;12.358;2022-08-01T03:21:16;3.67;;;2.30;;
15381;SDS011;7789;51.364;12.358;2022-08-01T03:26:36;2.30;;;2.10;;
15381;SDS011;7789;51.364;12.358;2022-08-01T03:32:06;4.25;;;2.42;;
15381;SDS011;7789;51.364;12.358;2022-08-01T03:37:36;4.93;;;2.40;;
15381;SDS011;7789;51.364;12.358;2022-08-01T03:43:15;7.18;;;2.08;;
15381;SDS011;7789;51.364;12.358;2022-08-01T03:48:24;3.85;;;2.55;;
15381;SDS011;7789;51.364;12.358;2022-08-01T03:54:04;3.17;;;2.05;;
15381;SDS011;7789;51.364;12.358;2022-08-01T03:59:21;2.17;;;1.90;;
15381;SDS011;7789;51.364;12.358;2022-08-01T04:04:38;2.83;;;1.90;;
15381;SDS011;7789;51.364;12.358;2022-08-01T04:09:47;4.43;;;1.98;;
15381;SDS011;7789;51.364;12.358;2022-08-01T04:14:53;2.20;;;1.83;;
15381;SDS011;7789;51.364;12.358;2022-08-01T04:20:08;1.65;;;1.50;;
15381;SDS011;7789;51.364;12.358;2022-08-01T04:25:19;1.73;;;1.30;;
15381;SDS011;7789;51.364;12.358;2022-08-01T04:30:37;1.63;;;1.50;;
15381;SDS011;7789;51.364;12.358;2022-08-01T04:35:47;1.85;;;1.40;;
15381;SDS011;7789;51.364;12.358;2022-08-01T04:41:18;3.13;;;1.73;;
15381;SDS011;7789;51.364;12.358;2022-08-01T04:46:27;2.05;;;1.50;;
15381;SDS011;7789;51.364;12.358;2022-08-01T04:51:50;2.63;;;1.40;;
15381;SDS011;7789;51.364;12.358;2022-08-01T04:57:02;1.52;;;1.33;;
15381;SDS011;7789;51.364;12.358;2022-08-01T05:02:11;3.20;;;1.38;;
15381;SDS011;7789;51.364;12.358;2022-08-01T05:07:26;5.03;;;1.67;;
15381;SDS011;7789;51.364;12.358;2022-08-01T05:12:48;2.55;;;1.50;;
15381;SDS011;7789;51.364;12.358;2022-08-01T05:17:59;1.73;;;1.50;;
15381;SDS011;7789;51.364;12.358;2022-08-01T05:23:08;2.33;;;1.15;;
15381;SDS011;7789;51.364;12.358;2022-08-01T05:28:34;1.55;;;1.45;;
15381;SDS011;7789;51.364;12.358;2022-08-01T05:33:40;1.40;;;1.20;;
15381;SDS011;7789;51.364;12.358;2022-08-01T05:38:47;1.55;;;1.45;;
15381;SDS011;7789;51.364;12.358;2022-08-01T05:44:07;2.30;;;1.40;;
15381;SDS011;7789;51.364;12.358;2022-08-01T05:49:12;1.65;;;1.10;;
15381;SDS011;7789;51.364;12.358;2022-08-01T05:54:19;1.55;;;1.20;;
15381;SDS011;7789;51.364;12.358;2022-08-01T05:59:28;2.53;;;1.40;;
15381;SDS011;7789;51.364;12.358;2022-08-01T06:04:34;1.10;;;1.00;;
15381;SDS011;7789;51.364;12.358;2022-08-01T06:09:40;1.80;;;1.30;;
15381;SDS011;7789;51.364;12.358;2022-08-01T06:14:55;3.50;;;1.45;;
15381;SDS011;7789;51.364;12.358;2022-08-01T06:20:01;1.65;;;1.20;;
15381;SDS011;7789;51.364;12.358;2022-08-01T06:25:15;1.33;;;1.20;;
15381;SDS011;7789;51.364;12.358;2022-08-01T06:30:37;2.38;;;1.08;;
15381;SDS011;7789;51.364;12.358;2022-08-01T06:35:42;0.88;;;0.82;;
15381;SDS011;7789;51.364;12.358;2022-08-01T06:40:58;1.77;;;1.05;;
15381;SDS011;7789;51.364;12.358;2022-08-01T06:46:08;1.00;;;0.90;;
15381;SDS011;7789;51.364;12.358;2022-08-01T06:51:13;1.63;;;0.80;;
15381;SDS011;7789;51.364;12.358;2022-08-01T06:56:20;0.73;;;0.73;;
15381;SDS011;7789;51.364;12.358;2022-08-01T07:01:30;1.95;;;0.73;;
15381;SDS011;7789;51.364;12.358;2022-08-01T07:06:38;1.33;;;0.88;;
15381;SDS011;7789;51.364;12.358;2022-08-01T07:11:47;1.00;;;0.90;;
15381;SDS011;7789;51.364;12.358;2022-08-01T07:22:27;2.72;;;0.80;;
15381;SDS011;7789;51.364;12.358;2022-08-01T07:27:38;0.80;;;0.80;;
15381;SDS011;7789;51.364;12.358;2022-08-01T07:32:50;2.22;;;0.95;;
15381;SDS011;7789;51.364;12.358;2022-08-01T07:37:56;0.77;;;0.60;;
15381;SDS011;7789;51.364;12.358;2022-08-01T07:43:02;1.55;;;0.90;;
15381;SDS011;7789;51.364;12.358;2022-08-01T07:48:11;6.25;;;1.95;;
15381;SDS011;7789;51.364;12.358;2022-08-01T07:53:19;1.60;;;0.98;;
15381;SDS011;7789;51.364;12.358;2022-08-01T07:58:28;2.08;;;1.08;;
15381;SDS011;7789;51.364;12.358;2022-08-01T08:04:01;5.35;;;0.80;;
15381;SDS011;7789;51.364;12.358;2022-08-01T08:09:07;5.97;;;0.90;;
15381;SDS011;7789;51.364;12.358;2022-08-01T08:14:18;2.13;;;1.00;;
15381;SDS011;7789;51.364;12.358;2022-08-01T08:19:39;2.33;;;1.10;;
15381;SDS011;7789;51.364;12.358;2022-08-01T08:24:55;1.30;;;1.00;;
15381;SDS011;7789;51.364;12.358;2022-08-01T08:30:10;0.70;;;0.70;;
15381;SDS011;7789;51.364;12.358;2022-08-01T08:35:34;0.77;;;0.75;;
15381;SDS011;7789;51.364;12.358;2022-08-01T08:40:59;1.27;;;0.90;;
15381;SDS011;7789;51.364;12.358;2022-08-01T08:46:07;1.73;;;0.88;;
15381;SDS011;7789;51.364;12.358;2022-08-01T08:51:38;1.45;;;0.90;;
15381;SDS011;7789;51.364;12.358;2022-08-01T08:57:04;1.73;;;0.90;;
15381;SDS011;7789;51.364;12.358;2022-08-01T09:02:16;0.80;;;0.80;;
15381;SDS011;7789;51.364;12.358;2022-08-01T09:07:35;0.88;;;0.80;;
15381;SDS011;7789;51.364;12.358;2022-08-01T09:12:40;0.60;;;0.60;;
15381;SDS011;7789;51.364;12.358;2022-08-01T09:18:27;1.05;;;0.55;;
15381;SDS011;7789;51.364;12.358;2022-08-01T09:23:40;0.75;;;0.47;;
15381;SDS011;7789;51.364;12.358;2022-08-01T09:29:00;1.25;;;0.50;;
15381;SDS011;7789;51.364;12.358;2022-08-01T09:34:42;0.85;;;0.30;;
15381;SDS011;7789;51.364;12.358;2022-08-01T09:39:57;0.50;;;0.40;;
15381;SDS011;7789;51.364;12.358;2022-08-01T09:45:12;1.27;;;0.68;;
15381;SDS011;7789;51.364;12.358;2022-08-01T09:50:46;0.60;;;0.50;;
15381;SDS011;7789;51.364;12.358;2022-08-01T09:56:07;1.27;;;0.60;;
15381;SDS011;7789;51.364;12.358;2022-08-01T10:01:20;1.73;;;0.70;;
15381;SDS011;7789;51.364;12.358;2022-08-01T10:06:49;0.50;;;0.50;;
15381;SDS011;7789;51.364;12.358;2022-08-01T10:12:19;2.55;;;0.65;;
15381;SDS011;7789;51.364;12.358;2022-08-01T10:17:26;0.30;;;0.30;;
15381;SDS011;7789;51.364;12.358;2022-08-01T10:22:52;0.47;;;0.47;;
15381;SDS011;7789;51.364;12.358;2022-08-01T10:28:15;0.70;;;0.52;;
15381;SDS011;7789;51.364;12.358;2022-08-01T10:33:33;0.77;;;0.60;;
15381;SDS011;7789;51.364;12.358;2022-08-01T10:38:54;0.70;;;0.70;;
15381;SDS011;7789;51.364;12.358;2022-08-01T10:44:06;0.80;;;0.80;;
15381;SDS011;7789;51.364;12.358;2022-08-01T10:49:13;0.77;;;0.77;;
15381;SDS011;7789;51.364;12.358;2022-08-01T10:54:24;1.20;;;1.10;;
15381;SDS011;7789;51.364;12.358;2022-08-01T10:59:47;1.80;;;1.00;;
15381;SDS011;7789;51.364;12.358;2022-08-01T11:05:09;1.20;;;1.10;;
15381;SDS011;7789;51.364;12.358;2022-08-01T11:10:37;1.00;;;1.00;;
15381;SDS011;7789;51.364;12.358;2022-08-01T11:15:55;2.22;;;1.10;;
15381;SDS011;7789;51.364;12.358;2022-08-01T11:21:59;1.20;;;1.10;;
15381;SDS011;7789;51.364;12.358;2022-08-01T11:27:26;1.17;;;1.00;;
15381;SDS011;7789;51.364;12.358;2022-08-01T11:33:13;2.65;;;1.20;;
15381;SDS011;7789;51.364;12.358;2022-08-01T11:38:23;2.08;;;0.80;;
15381;SDS011;7789;51.364;12.358;2022-08-01T12:00:32;1.70;;;1.30;;
15381;SDS011;7789;51.364;12.358;2022-08-01T12:05:47;4.75;;;1.23;;
15381;SDS011;7789;51.364;12.358;2022-08-01T12:11:20;1.40;;;1.30;;
15381;SDS011;7789;51.364;12.358;2022-08-01T12:16:54;0.95;;;0.88;;
15381;SDS011;7789;51.364;12.358;2022-08-01T12:22:17;1.92;;;0.90;;
15381;SDS011;7789;51.364;12.358;2022-08-01T12:27:37;1.33;;;0.90;;
15381;SDS011;7789;51.364;12.358;2022-08-01T12:32:44;1.30;;;1.20;;
15381;SDS011;7789;51.364;12.358;2022-08-01T12:38:15;1.10;;;1.10;;
15381;SDS011;7789;51.364;12.358;2022-08-01T12:44:16;0.95;;;0.95;;
15381;SDS011;7789;51.364;12.358;2022-08-01T12:49:28;1.30;;;1.20;;
15381;SDS011;7789;51.364;12.358;2022-08-01T12:55:07;0.75;;;0.75;;
15381;SDS011;7789;51.364;12.358;2022-08-01T13:00:30;2.50;;;0.80;;
15381;SDS011;7789;51.364;12.358;2022-08-01T13:05:48;1.77;;;1.52;;
15381;SDS011;7789;51.364;12.358;2022-08-01T13:11:05;3.22;;;0.80;;
15381;SDS011;7789;51.364;12.358;2022-08-01T13:16:19;3.92;;;0.88;;
15381;SDS011;7789;51.364;12.358;2022-08-01T13:21:54;2.58;;;0.90;;
15381;SDS011;7789;51.364;12.358;2022-08-01T13:27:07;1.08;;;0.90;;
15381;SDS011;7789;51.364;12.358;2022-08-01T13:32:40;0.90;;;0.90;;
15381;SDS011;7789;51.364;12.358;2022-08-01T13:37:52;2.85;;;0.88;;
15381;SDS011;7789;51.364;12.358;2022-08-01T13:43:35;1.40;;;0.73;;
15381;SDS011;7789;51.364;12.358;2022-08-01T13:49:05;2.10;;;1.27;;
15381;SDS011;7789;51.364;12.358;2022-08-01T13:54:16;1.15;;;0.70;;
15381;SDS011;7789;51.364;12.358;2022-08-01T13:59:22;0.98;;;0.77;;
15381;SDS011;7789;51.364;12.358;2022-08-01T14:04:29;1.85;;;0.80;;
15381;SDS011;7789;51.364;12.358;2022-08-01T14:09:55;0.65;;;0.50;;
15381;SDS011;7789;51.364;12.358;2022-08-01T14:15:21;0.45;;;0.45;;
15381;SDS011;7789;51.364;12.358;2022-08-01T14:20:49;1.17;;;1.08;;
15381;SDS011;7789;51.364;12.358;2022-08-01T14:26:07;3.22;;;0.93;;
15381;SDS011;7789;51.364;12.358;2022-08-01T14:31:23;0.82;;;0.82;;
15381;SDS011;7789;51.364;12.358;2022-08-01T14:37:06;0.80;;;0.55;;
15381;SDS011;7789;51.364;12.358;2022-08-01T14:42:31;0.95;;;0.85;;
15381;SDS011;7789;51.364;12.358;2022-08-01T14:47:42;0.90;;;0.90;;
15381;SDS011;7789;51.364;12.358;2022-08-01T14:53:06;0.80;;;0.80;;
15381;SDS011;7789;51.364;12.358;2022-08-01T14:58:13;1.13;;;0.90;;
15381;SDS011;7789;51.364;12.358;2022-08-01T15:03:20;0.80;;;0.80;;
15381;SDS011;7789;51.364;12.358;2022-08-01T15:08:34;1.08;;;0.90;;
15381;SDS011;7789;51.364;12.358;2022-08-01T15:14:00;1.80;;;1.15;;
15381;SDS011;7789;51.364;12.358;2022-08-01T15:19:21;1.40;;;1.30;;
15381;SDS011;7789;51.364;12.358;2022-08-01T15:24:35;1.40;;;1.30;;
15381;SDS011;7789;51.364;12.358;2022-08-01T15:29:41;1.67;;;1.35;;
15381;SDS011;7789;51.364;12.358;2022-08-01T15:34:51;3.55;;;1.45;;
15381;SDS011;7789;51.364;12.358;2022-08-01T15:40:01;1.80;;;1.70;;
15381;SDS011;7789;51.364;12.358;2022-08-01T15:45:06;1.60;;;1.50;;
15381;SDS011;7789;51.364;12.358;2022-08-01T15:50:40;1.40;;;1.30;;
15381;SDS011;7789;51.364;12.358;2022-08-01T15:56:00;1.30;;;1.20;;
15381;SDS011;7789;51.364;12.358;2022-08-01T16:01:23;1.40;;;1.30;;
15381;SDS011;7789;51.364;12.358;2022-08-01T16:06:44;1.38;;;1.27;;
15381;SDS011;7789;51.364;12.358;2022-08-01T16:11:54;1.20;;;1.05;;
15381;SDS011;7789;51.364;12.358;2022-08-01T16:17:22;1.17;;;0.93;;
15381;SDS011;7789;51.364;12.358;2022-08-01T16:22:48;1.42;;;1.00;;
15381;SDS011;7789;51.364;12.358;2022-08-01T16:28:15;0.77;;;0.77;;
15381;SDS011;7789;51.364;12.358;2022-08-01T16:33:26;3.20;;;1.10;;
15381;SDS011;7789;51.364;12.358;2022-08-01T16:39:06;1.17;;;0.95;;
15381;SDS011;7789;51.364;12.358;2022-08-01T16:44:30;1.35;;;1.00;;
15381;SDS011;7789;51.364;12.358;2022-08-01T16:49:42;1.08;;;0.85;;
15381;SDS011;7789;51.364;12.358;2022-08-01T16:55:06;4.70;;;0.90;;
15381;SDS011;7789;51.364;12.358;2022-08-01T17:00:54;1.35;;;1.10;;
15381;SDS011;7789;51.364;12.358;2022-08-01T17:06:40;1.00;;;0.90;;
15381;SDS011;7789;51.364;12.358;2022-08-01T17:11:54;2.70;;;1.00;;
15381;SDS011;7789;51.364;12.358;2022-08-01T17:17:20;2.53;;;0.77;;
15381;SDS011;7789;51.364;12.358;2022-08-01T17:22:26;0.90;;;0.90;;
15381;SDS011;7789;51.364;12.358;2022-08-01T17:27:37;0.85;;;0.82;;
15381;SDS011;7789;51.364;12.358;2022-08-01T17:32:44;2.30;;;0.60;;
15381;SDS011;7789;51.364;12.358;2022-08-01T17:37:59;0.98;;;0.60;;
15381;SDS011;7789;51.364;12.358;2022-08-01T17:43:08;0.73;;;0.73;;
15381;SDS011;7789;51.364;12.358;2022-08-01T17:48:14;0.73;;;0.70;;
15381;SDS011;7789;51.364;12.358;2022-08-01T17:53:23;1.65;;;0.75;;
15381;SDS011;7789;51.364;12.358;2022-08-01T17:58:28;0.70;;;0.60;;
15381;SDS011;7789;51.364;12.358;2022-08-01T18:03:58;2.70;;;1.17;;
15381;SDS011;7789;51.364;12.358;2022-08-01T18:09:03;3.03;;;0.80;;
15381;SDS011;7789;51.364;12.358;2022-08-01T18:14:24;1.00;;;0.90;;
15381;SDS011;7789;51.364;12.358;2022-08-01T18:19:52;1.10;;;0.60;;
15381;SDS011;7789;51.364;12.358;2022-08-01T18:25:04;0.65;;;0.60;;
15381;SDS011;7789;51.364;12.358;2022-08-01T18:30:15;2.33;;;0.70;;
15381;SDS011;7789;51.364;12.358;2022-08-01T18:35:25;1.92;;;0.90;;
15381;SDS011;7789;51.364;12.358;2022-08-01T18:41:04;0.68;;;0.63;;
15381;SDS011;7789;51.364;12.358;2022-08-01T18:46:26;2.40;;;0.68;;
15381;SDS011;7789;51.364;12.358;2022-08-01T18:51:41;0.98;;;0.45;;
15381;SDS011;7789;51.364;12.358;2022-08-01T18:57:00;1.35;;;0.80;;
15381;SDS011;7789;51.364;12.358;2022-08-01T19:02:10;2.42;;;1.05;;
15381;SDS011;7789;51.364;12.358;2022-08-01T19:07:23;1.38;;;0.90;;
15381;SDS011;7789;51.364;12.358;2022-08-01T19:12:54;3.40;;;1.20;;
15381;SDS011;7789;51.364;12.358;2022-08-01T19:18:28;1.35;;;1.05;;
15381;SDS011;7789;51.364;12.358;2022-08-01T19:23:41;1.35;;;1.00;;
15381;SDS011;7789;51.364;12.358;2022-08-01T19:29:05;2.25;;;0.70;;
15381;SDS011;7789;51.364;12.358;2022-08-01T19:34:40;1.05;;;0.65;;
15381;SDS011;7789;51.364;12.358;2022-08-01T19:40:26;3.13;;;0.60;;
15381;SDS011;7789;51.364;12.358;2022-08-01T19:45:34;1.33;;;0.90;;
15381;SDS011;7789;51.364;12.358;2022-08-01T19:50:50;0.93;;;0.70;;
15381;SDS011;7789;51.364;12.358;2022-08-01T19:56:06;1.45;;;0.80;;
15381;SDS011;7789;51.364;12.358;2022-08-01T20:01:15;2.15;;;0.90;;
15381;SDS011;7789;51.364;12.358;2022-08-01T20:06:28;1.17;;;0.90;;
15381;SDS011;7789;51.364;12.358;2022-08-01T20:11:38;1.70;;;0.95;;
15381;SDS011;7789;51.364;12.358;2022-08-01T20:16:52;3.08;;;0.73;;
15381;SDS011;7789;51.364;12.358;2022-08-01T20:22:01;4.47;;;0.98;;
15381;SDS011;7789;51.364;12.358;2022-08-01T20:27:24;1.33;;;1.00;;
15381;SDS011;7789;51.364;12.358;2022-08-01T20:32:37;0.98;;;0.77;;
15381;SDS011;7789;51.364;12.358;2022-08-01T20:37:51;3.08;;;1.00;;
15381;SDS011;7789;51.364;12.358;2022-08-01T20:43:10;0.98;;;0.80;;
15381;SDS011;7789;51.364;12.358;2022-08-01T20:48:25;4.45;;;0.90;;
15381;SDS011;7789;51.364;12.358;2022-08-01T20:53:41;1.48;;;0.77;;
15381;SDS011;7789;51.364;12.358;2022-08-01T20:59:15;0.73;;;0.60;;
15381;SDS011;7789;51.364;12.358;2022-08-01T21:04:59;1.02;;;0.70;;
15381;SDS011;7789;51.364;12.358;2022-08-01T21:10:13;1.65;;;0.77;;
15381;SDS011;7789;51.364;12.358;2022-08-01T21:15:55;1.10;;;1.00;;
15381;SDS011;7789;51.364;12.358;2022-08-01T21:21:28;2.03;;;0.82;;
15381;SDS011;7789;51.364;12.358;2022-08-01T21:26:42;1.20;;;0.80;;
15381;SDS011;7789;51.364;12.358;2022-08-01T21:32:16;1.88;;;1.13;;
15381;SDS011;7789;51.364;12.358;2022-08-01T21:37:37;1.48;;;0.85;;
15381;SDS011;7789;51.364;12.358;2022-08-01T21:43:06;1.77;;;0.90;;
15381;SDS011;7789;51.364;12.358;2022-08-01T21:48:19;1.58;;;0.73;;
15381;SDS011;7789;51.364;12.358;2022-08-01T21:53:34;1.30;;;0.90;;
15381;SDS011;7789;51.364;12.358;2022-08-01T21:58:56;2.00;;;0.77;;
15381;SDS011;7789;51.364;12.358;2022-08-01T22:04:19;1.58;;;1.00;;
15381;SDS011;7789;51.364;12.358;2022-08-01T22:09:32;2.95;;;0.90;;
15381;SDS011;7789;51.364;12.358;2022-08-01T22:14:38;3.42;;;1.00;;
15381;SDS011;7789;51.364;12.358;2022-08-01T22:19:59;1.20;;;1.00;;
15381;SDS011;7789;51.364;12.358;2022-08-01T22:25:06;1.08;;;0.85;;
15381;SDS011;7789;51.364;12.358;2022-08-01T22:30:21;4.63;;;0.80;;
15381;SDS011;7789;51.364;12.358;2022-08-01T22:35:31;3.58;;;1.60;;
15381;SDS011;7789;51.364;12.358;2022-08-01T22:40:52;1.83;;;0.98;;
15381;SDS011;7789;51.364;12.358;2022-08-01T22:46:04;3.67;;;1.33;;
15381;SDS011;7789;51.364;12.358;2022-08-01T22:51:50;1.92;;;1.10;;
15381;SDS011;7789;51.364;12.358;2022-08-01T22:57:00;5.97;;;1.23;;
15381;SDS011;7789;51.364;12.358;2022-08-01T23:02:16;2.47;;;1.20;;
15381;SDS011;7789;51.364;12.358;2022-08-01T23:07:54;3.85;;;1.20;;
15381;SDS011;7789;51.364;12.358;2022-08-01T23:13:18;2.45;;;1.00;;
15381;SDS011;7789;51.364;12.358;2022-08-01T23:18:28;3.38;;;1.10;;
15381;SDS011;7789;51.364;12.358;2022-08-01T23:23:49;4.30;;;0.98;;
15381;SDS011;7789;51.364;12.358;2022-08-01T23:29:19;4.00;;;1.17;;
15381;SDS011;7789;51.364;12.358;2022-08-01T23:34:32;2.65;;;1.20;;
15381;SDS011;7789;51.364;12.358;2022-08-01T23:39:41;3.78;;;1.20;;
15381;SDS011;7789;51.364;12.358;2022-08-01T23:44:47;2.35;;;1.10;;
15381;SDS011;7789;51.364;12.358;2022-08-01T23:50:02;5.32;;;1.70;;
15381;SDS011;7789;51.364;12.358;2022-08-01T23:55:20;4.93;;;1.20;;
